Aviation Digital Data Service (ADDS)

Output produced by TAFs form (1616 UTC 01 October 2014)
found at http://aviationweather.gov/adds/tafs/
 
KTCS 011120Z 0112/0212 29008KT P6SM SKC 
     FM011700 17011KT P6SM SKC 
     FM012100 24015G25KT P6SM SKC 
     FM020400 29008KT P6SM SKC